createdAt,value
2022-08-29T00:00:31.919Z,16.20
2022-08-29T00:03:00.110Z,16.20
2022-08-29T00:05:31.197Z,16.20
2022-08-29T00:07:59.515Z,16.20
2022-08-29T00:10:27.908Z,16.20
2022-08-29T00:12:55.129Z,16.10
2022-08-29T00:15:25.713Z,16.10
2022-08-29T00:17:52.473Z,16.10
2022-08-29T00:20:30.223Z,16.10
2022-08-29T00:23:01.805Z,16.10
2022-08-29T00:25:28.515Z,16.10
2022-08-29T00:27:55.191Z,16.10
2022-08-29T00:30:23.182Z,16.00
2022-08-29T00:32:50.218Z,16.00
2022-08-29T00:35:22.711Z,15.90
2022-08-29T00:37:51.513Z,15.90
2022-08-29T00:40:26.697Z,15.80
2022-08-29T00:42:54.318Z,15.80
2022-08-29T00:45:21.292Z,15.90
2022-08-29T00:48:02.228Z,15.90
2022-08-29T00:50:33.152Z,15.80
2022-08-29T00:53:01.565Z,15.70
2022-08-29T00:55:32.537Z,15.70
2022-08-29T00:58:06.126Z,15.70
2022-08-29T01:00:33.702Z,15.70
2022-08-29T01:03:00.681Z,15.60
2022-08-29T01:05:27.411Z,15.60
2022-08-29T01:07:54.209Z,15.60
2022-08-29T01:10:40.765Z,15.60
2022-08-29T01:13:09.278Z,15.60
2022-08-29T01:15:37.698Z,15.60
2022-08-29T01:18:06.074Z,15.60
2022-08-29T01:21:04.334Z,15.60
2022-08-29T01:23:59.596Z,15.60
2022-08-29T01:26:28.970Z,15.50
2022-08-29T01:28:56.816Z,15.40
2022-08-29T01:31:31.778Z,15.40
2022-08-29T01:34:16.257Z,15.30
2022-08-29T01:37:03.118Z,15.30
2022-08-29T01:39:33.998Z,15.30
2022-08-29T01:42:04.596Z,15.30
2022-08-29T01:44:31.483Z,15.30
2022-08-29T01:47:02.775Z,15.30
2022-08-29T01:49:34.789Z,15.30
2022-08-29T01:52:06.064Z,15.40
2022-08-29T01:54:33.408Z,15.30
2022-08-29T01:57:01.481Z,15.30
2022-08-29T01:59:29.999Z,15.20
2022-08-29T02:02:07.495Z,15.20
2022-08-29T02:04:34.988Z,15.10
2022-08-29T02:07:01.913Z,15.10
2022-08-29T02:09:29.074Z,15.10
2022-08-29T02:11:58.074Z,15.10
2022-08-29T02:14:25.079Z,15.10
2022-08-29T02:16:51.771Z,15.10
2022-08-29T02:19:19.391Z,15.10
2022-08-29T02:21:46.294Z,15.00
2022-08-29T02:24:25.362Z,15.00
2022-08-29T02:26:54.622Z,15.00
2022-08-29T02:29:21.394Z,15.00
2022-08-29T02:31:48.515Z,15.00
2022-08-29T02:34:16.058Z,15.00
2022-08-29T02:36:44.455Z,15.00
2022-08-29T02:39:11.761Z,15.00
2022-08-29T02:41:38.745Z,15.00
2022-08-29T02:44:05.829Z,15.00
2022-08-29T02:46:32.744Z,15.00
2022-08-29T02:49:00.729Z,15.00
2022-08-29T02:51:30.983Z,15.00
2022-08-29T02:53:57.984Z,14.90
2022-08-29T02:56:24.774Z,14.90
2022-08-29T02:58:51.544Z,14.90
2022-08-29T03:01:23.209Z,14.90
2022-08-29T03:03:51.324Z,14.90
2022-08-29T03:06:19.558Z,14.80
2022-08-29T03:08:46.922Z,14.80
2022-08-29T03:11:13.973Z,14.90
2022-08-29T03:13:40.744Z,14.90
2022-08-29T03:16:08.623Z,14.90
2022-08-29T03:18:35.379Z,14.90
2022-08-29T03:21:02.040Z,14.90
2022-08-29T03:23:28.719Z,14.90
2022-08-29T03:25:55.512Z,14.90
2022-08-29T03:28:22.169Z,14.90
2022-08-29T03:30:48.887Z,14.80
2022-08-29T03:33:15.718Z,14.90
2022-08-29T03:35:42.680Z,14.80
2022-08-29T03:38:09.415Z,14.80
2022-08-29T03:40:36.228Z,14.80
2022-08-29T03:43:03.360Z,14.80
2022-08-29T03:45:30.621Z,14.80
2022-08-29T03:47:57.335Z,14.70
2022-08-29T03:50:24.346Z,14.70
2022-08-29T03:52:51.459Z,14.70
2022-08-29T03:55:20.226Z,14.70
2022-08-29T03:57:47.640Z,14.70
2022-08-29T04:00:17.064Z,14.70
2022-08-29T04:02:46.753Z,14.60
2022-08-29T04:05:15.785Z,14.50
2022-08-29T04:07:45.192Z,14.50
2022-08-29T04:10:15.895Z,14.50
2022-08-29T04:12:42.685Z,14.50
2022-08-29T04:15:10.044Z,14.50
2022-08-29T04:17:38.077Z,14.40
2022-08-29T04:20:24.543Z,14.50
2022-08-29T04:22:52.281Z,14.50
2022-08-29T04:25:19.015Z,14.40
2022-08-29T04:27:45.712Z,14.40
2022-08-29T04:30:16.366Z,14.40
2022-08-29T04:32:44.418Z,14.40
2022-08-29T04:35:13.443Z,14.40
2022-08-29T04:37:42.031Z,14.30
2022-08-29T04:40:11.378Z,14.30
2022-08-29T04:42:39.369Z,14.30
2022-08-29T04:45:08.743Z,14.30
2022-08-29T04:47:36.062Z,14.30
2022-08-29T04:50:03.169Z,14.30
2022-08-29T04:52:29.831Z,14.30
2022-08-29T04:54:56.927Z,14.30
2022-08-29T04:57:24.705Z,14.50
2022-08-29T04:59:58.828Z,14.50
2022-08-29T05:02:27.725Z,14.60
2022-08-29T05:04:56.491Z,14.60
2022-08-29T05:07:26.992Z,14.60
2022-08-29T05:10:06.208Z,14.70
2022-08-29T05:12:36.222Z,14.70
2022-08-29T05:15:04.051Z,14.70
2022-08-29T05:17:30.717Z,14.80
2022-08-29T05:19:57.426Z,14.80
2022-08-29T05:22:24.340Z,14.80
2022-08-29T05:24:51.181Z,14.80
2022-08-29T05:27:21.183Z,14.80
2022-08-29T05:29:50.732Z,14.80
2022-08-29T05:32:19.548Z,14.90
2022-08-29T05:34:47.441Z,15.00
2022-08-29T05:37:17.391Z,15.10
2022-08-29T05:39:44.070Z,15.20
2022-08-29T05:42:12.560Z,15.20
2022-08-29T05:44:40.301Z,15.30
2022-08-29T05:47:09.518Z,15.30
2022-08-29T05:49:37.691Z,15.40
2022-08-29T05:52:05.450Z,15.40
2022-08-29T05:54:34.807Z,15.50
2022-08-29T05:57:01.917Z,15.60
2022-08-29T12:45:17.739Z,15.60
2022-08-29T12:47:58.117Z,27.10
2022-08-29T12:50:30.417Z,26.50
2022-08-29T12:53:18.158Z,26.10
2022-08-29T12:55:48.985Z,26.10
2022-08-29T12:58:36.108Z,26.30
2022-08-29T13:01:06.649Z,26.60
2022-08-29T13:03:33.654Z,26.80
2022-08-29T13:06:13.128Z,27.00
2022-08-29T13:11:11.022Z,27.10
2022-08-29T13:13:38.155Z,27.40
2022-08-29T13:16:08.255Z,27.40
2022-08-29T13:18:44.584Z,27.20
2022-08-29T13:21:31.729Z,27.20
2022-08-29T13:24:00.485Z,27.20
2022-08-29T13:26:29.376Z,27.40
2022-08-29T13:29:20.539Z,27.40
2022-08-29T13:32:16.858Z,27.30
2022-08-29T13:40:30.188Z,27.50
2022-08-29T13:42:58.904Z,27.40
2022-08-29T13:45:25.865Z,26.90
2022-08-29T13:48:11.249Z,26.60
2022-08-29T13:50:38.383Z,26.30
2022-08-29T13:53:05.109Z,26.10
2022-08-29T13:55:32.685Z,26.20
2022-08-29T13:57:59.449Z,26.50
2022-08-29T14:00:35.136Z,26.70
2022-08-29T14:03:03.489Z,27.20
2022-08-29T14:22:42.931Z,27.50
2022-08-29T14:25:11.034Z,27.50
2022-08-29T14:27:38.675Z,27.30
2022-08-29T14:30:08.446Z,27.00
2022-08-29T14:32:35.313Z,26.80
2022-08-29T14:35:03.827Z,26.70
2022-08-29T14:37:32.441Z,26.80
2022-08-29T14:39:59.381Z,26.90
2022-08-29T14:42:26.211Z,27.10
2022-08-29T14:44:53.052Z,27.40
2022-08-29T14:47:19.882Z,27.50
2022-08-29T14:49:46.680Z,27.70
2022-08-29T16:11:24.385Z,27.90
2022-08-29T16:13:58.065Z,27.80
2022-08-29T16:16:35.237Z,27.50
2022-08-29T16:19:05.280Z,27.40
2022-08-29T16:31:22.851Z,27.60
2022-08-29T16:33:49.674Z,28.90
2022-08-29T16:36:17.981Z,28.80
2022-08-29T16:38:45.012Z,28.80
2022-08-29T16:41:14.560Z,28.70
2022-08-29T16:43:42.265Z,28.70
2022-08-29T16:56:08.588Z,28.60
2022-08-29T16:58:54.728Z,28.60
2022-08-29T17:03:48.742Z,28.50
2022-08-29T17:06:15.403Z,28.30
2022-08-29T17:08:42.096Z,28.10
2022-08-29T17:11:08.962Z,27.90
2022-08-29T17:13:35.641Z,27.80
2022-08-29T17:16:04.746Z,27.60
2022-08-29T17:18:32.173Z,27.40
2022-08-29T17:20:59.866Z,27.20
2022-08-29T17:23:28.133Z,27.00
2022-08-29T17:25:55.629Z,26.60
2022-08-29T17:28:22.763Z,26.30
2022-08-29T17:30:50.632Z,25.90
2022-08-29T17:33:18.475Z,25.50
2022-08-29T17:35:46.313Z,25.30
2022-08-29T17:38:14.413Z,25.00
2022-08-29T17:40:42.055Z,24.80
2022-08-29T17:43:10.106Z,24.50
2022-08-29T17:45:37.389Z,24.20
2022-08-29T17:48:05.051Z,23.90
2022-08-29T17:50:32.834Z,23.70
2022-08-29T17:52:59.511Z,23.50
2022-08-29T17:55:27.590Z,23.40
2022-08-29T17:57:57.813Z,23.20
2022-08-29T18:00:25.033Z,23.10
2022-08-29T18:02:52.713Z,23.00
2022-08-29T18:05:19.513Z,22.80
2022-08-29T18:07:46.275Z,22.60
2022-08-29T18:10:15.281Z,22.50
2022-08-29T18:12:42.220Z,22.20
2022-08-29T18:15:10.270Z,22.00
2022-08-29T18:17:38.179Z,21.80
2022-08-29T18:20:06.697Z,21.60
2022-08-29T18:22:33.583Z,21.40
2022-08-29T18:25:01.374Z,21.30
2022-08-29T18:27:29.441Z,21.10
2022-08-29T18:29:57.411Z,21.00
2022-08-29T18:32:25.479Z,20.90
2022-08-29T18:34:52.647Z,20.80
2022-08-29T18:37:20.245Z,20.60
2022-08-29T18:39:47.162Z,20.60
2022-08-29T18:42:36.906Z,20.50
2022-08-29T18:45:00.737Z,20.40
2022-08-29T18:47:27.596Z,20.30
2022-08-29T18:50:12.807Z,20.20
2022-08-29T18:52:40.066Z,20.20
2022-08-29T18:55:07.410Z,20.10
2022-08-29T18:57:35.129Z,20.10
2022-08-29T19:00:02.775Z,20.00
2022-08-29T19:02:29.606Z,19.90
2022-08-29T19:04:56.410Z,19.70
2022-08-29T19:07:24.539Z,19.60
2022-08-29T19:09:52.925Z,19.60
2022-08-29T19:12:19.757Z,19.50
2022-08-29T19:14:46.545Z,19.40
2022-08-29T19:17:13.310Z,19.30
2022-08-29T19:19:58.602Z,19.30
2022-08-29T19:22:25.807Z,19.20
2022-08-29T19:24:52.465Z,19.20
2022-08-29T19:27:41.654Z,19.10
2022-08-29T19:30:07.856Z,19.10
2022-08-29T19:32:35.106Z,19.00
2022-08-29T19:35:02.269Z,19.00
2022-08-29T19:37:29.166Z,19.00
2022-08-29T19:39:56.028Z,18.90
2022-08-29T19:42:23.855Z,18.80
2022-08-29T19:44:50.584Z,18.80
2022-08-29T19:47:17.333Z,18.70
2022-08-29T19:49:47.134Z,18.70
2022-08-29T19:52:15.637Z,18.60
2022-08-29T19:54:43.516Z,18.60
2022-08-29T19:57:13.688Z,18.50
2022-08-29T19:59:42.412Z,18.50
2022-08-29T20:02:10.562Z,18.40
2022-08-29T20:04:37.963Z,18.40
2022-08-29T20:07:05.414Z,18.40
2022-08-29T20:09:32.150Z,18.30
2022-08-29T20:11:59.015Z,18.30
2022-08-29T20:14:25.779Z,18.30
2022-08-29T20:16:52.437Z,18.20
2022-08-29T20:19:21.239Z,18.10
2022-08-29T20:21:49.585Z,18.10
2022-08-29T20:24:17.051Z,18.10
2022-08-29T20:26:44.679Z,18.10
2022-08-29T20:29:12.531Z,18.00
2022-08-29T20:31:40.272Z,17.90
2022-08-29T20:34:07.131Z,17.90
2022-08-29T20:36:52.654Z,17.80
2022-08-29T20:39:21.845Z,17.80
2022-08-29T20:41:50.561Z,17.70
2022-08-29T20:44:20.157Z,17.70
2022-08-29T20:46:47.153Z,17.70
2022-08-29T20:49:17.341Z,17.60
2022-08-29T20:51:44.367Z,17.60
2022-08-29T20:54:17.276Z,17.50
2022-08-29T20:56:44.075Z,17.50
2022-08-29T20:59:11.663Z,17.50
2022-08-29T21:01:40.185Z,17.40
2022-08-29T21:04:26.767Z,17.40
2022-08-29T21:06:55.105Z,17.40
2022-08-29T21:09:22.509Z,17.30
2022-08-29T21:11:50.289Z,17.30
2022-08-29T21:14:17.592Z,17.30
2022-08-29T21:16:44.617Z,17.30
2022-08-29T21:19:12.713Z,17.30
2022-08-29T21:21:41.198Z,17.30
2022-08-29T21:24:10.369Z,17.30
2022-08-29T21:26:38.113Z,17.20
2022-08-29T21:29:07.219Z,17.20
2022-08-29T21:31:35.066Z,17.20
2022-08-29T21:34:06.763Z,17.20
2022-08-29T21:36:35.815Z,17.20
2022-08-29T21:39:03.836Z,17.10
2022-08-29T21:41:31.755Z,17.10
2022-08-29T21:43:58.603Z,17.00
2022-08-29T21:46:28.968Z,17.00
2022-08-29T21:48:57.764Z,17.00
2022-08-29T21:51:25.333Z,17.00
2022-08-29T21:53:55.419Z,17.00
2022-08-29T21:56:24.610Z,17.00
2022-08-29T21:58:53.996Z,17.00
2022-08-29T22:01:23.572Z,17.00
2022-08-29T22:03:50.751Z,16.90
2022-08-29T22:06:18.090Z,16.90
2022-08-29T22:08:46.005Z,16.90
2022-08-29T22:11:16.885Z,16.80
2022-08-29T22:13:43.906Z,16.80
2022-08-29T22:16:29.709Z,16.80
2022-08-29T22:18:59.353Z,16.80
2022-08-29T22:21:27.712Z,16.70
2022-08-29T22:23:54.822Z,16.60
2022-08-29T22:26:22.089Z,16.70
2022-08-29T22:28:49.044Z,16.60
2022-08-29T22:31:16.426Z,16.50
2022-08-29T22:33:43.670Z,16.50
2022-08-29T22:36:12.937Z,16.40
2022-08-29T22:38:45.291Z,16.40
2022-08-29T22:41:16.859Z,16.40
2022-08-29T22:43:45.139Z,16.30
2022-08-29T22:46:23.180Z,16.30
2022-08-29T22:48:51.361Z,16.30
2022-08-29T22:51:25.554Z,16.30
2022-08-29T22:54:11.829Z,16.30
2022-08-29T22:56:42.787Z,16.30
2022-08-29T22:59:09.703Z,16.20
2022-08-29T23:01:38.913Z,16.30
2022-08-29T23:04:07.023Z,16.30
2022-08-29T23:06:34.463Z,16.20
2022-08-29T23:09:01.235Z,16.20
2022-08-29T23:11:28.012Z,16.20
2022-08-29T23:13:55.931Z,16.20
2022-08-29T23:16:23.486Z,16.10
2022-08-29T23:18:50.785Z,16.10
2022-08-29T23:21:18.193Z,16.10
2022-08-29T23:23:45.470Z,16.10
2022-08-29T23:26:12.382Z,16.00
2022-08-29T23:28:39.188Z,16.10
2022-08-29T23:31:06.408Z,16.00
2022-08-29T23:33:33.177Z,16.00
2022-08-29T23:36:00.072Z,16.00
2022-08-29T23:38:26.763Z,16.00
2022-08-29T23:40:57.087Z,16.00
2022-08-29T23:43:24.762Z,15.90
2022-08-29T23:45:51.921Z,15.90
2022-08-29T23:48:18.983Z,15.90
2022-08-29T23:50:52.853Z,15.90
2022-08-29T23:53:21.021Z,15.90
2022-08-29T23:55:48.208Z,15.90
2022-08-29T23:58:15.083Z,15.90
